sensor_id;sensor_type;location;lat;lon;timestamp;temperature;humidity
6114;DHT22;3087;48.392;10.836;2023-04-01T00:00:22;8.90;99.90
6114;DHT22;3087;48.392;10.836;2023-04-01T00:02:48;8.90;99.90
6114;DHT22;3087;48.392;10.836;2023-04-01T00:05:13;9.00;99.90
6114;DHT22;3087;48.392;10.836;2023-04-01T00:07:39;8.90;99.90
6114;DHT22;3087;48.392;10.836;2023-04-01T00:10:11;9.00;99.90
6114;DHT22;3087;48.392;10.836;2023-04-01T00:12:38;10.50;99.90
6114;DHT22;3087;48.392;10.836;2023-04-01T00:15:05;9.00;99.90
6114;DHT22;3087;48.392;10.836;2023-04-01T00:17:31;9.00;99.90
6114;DHT22;3087;48.392;10.836;2023-04-01T00:19:57;9.10;99.90
6114;DHT22;3087;48.392;10.836;2023-04-01T00:22:24;9.00;99.90
6114;DHT22;3087;48.392;10.836;2023-04-01T00:24:50;10.30;99.90
6114;DHT22;3087;48.392;10.836;2023-04-01T00:27:16;9.00;99.90
6114;DHT22;3087;48.392;10.836;2023-04-01T00:29:43;9.10;99.90
6114;DHT22;3087;48.392;10.836;2023-04-01T00:32:09;9.00;99.90
6114;DHT22;3087;48.392;10.836;2023-04-01T00:34:34;9.20;99.90
6114;DHT22;3087;48.392;10.836;2023-04-01T00:37:00;9.50;99.90
6114;DHT22;3087;48.392;10.836;2023-04-01T00:39:28;9.10;99.90
6114;DHT22;3087;48.392;10.836;2023-04-01T00:41:54;9.20;99.90
6114;DHT22;3087;48.392;10.836;2023-04-01T00:44:24;9.20;99.90
6114;DHT22;3087;48.392;10.836;2023-04-01T00:46:50;9.20;99.90
6114;DHT22;3087;48.392;10.836;2023-04-01T00:49:20;9.60;99.90
6114;DHT22;3087;48.392;10.836;2023-04-01T00:51:49;9.20;99.90
6114;DHT22;3087;48.392;10.836;2023-04-01T00:54:16;9.20;99.90
6114;DHT22;3087;48.392;10.836;2023-04-01T00:56:49;9.10;99.90
6114;DHT22;3087;48.392;10.836;2023-04-01T00:59:23;9.00;99.90
6114;DHT22;3087;48.392;10.836;2023-04-01T01:01:49;9.40;99.90
6114;DHT22;3087;48.392;10.836;2023-04-01T01:04:26;9.10;99.90
6114;DHT22;3087;48.392;10.836;2023-04-01T01:10:08;9.20;99.90
6114;DHT22;3087;48.392;10.836;2023-04-01T01:15:32;9.20;99.90
6114;DHT22;3087;48.392;10.836;2023-04-01T01:18:23;9.20;99.90
6114;DHT22;3087;48.392;10.836;2023-04-01T01:27:17;9.10;99.90
6114;DHT22;3087;48.392;10.836;2023-04-01T01:35:39;9.10;99.90
6114;DHT22;3087;48.392;10.836;2023-04-01T01:38:09;8.90;99.90
6114;DHT22;3087;48.392;10.836;2023-04-01T01:40:39;9.00;99.90
6114;DHT22;3087;48.392;10.836;2023-04-01T01:43:11;9.00;99.90
6114;DHT22;3087;48.392;10.836;2023-04-01T01:45:42;8.90;99.90
6114;DHT22;3087;48.392;10.836;2023-04-01T01:48:08;8.80;99.90
6114;DHT22;3087;48.392;10.836;2023-04-01T01:50:35;9.00;99.90
6114;DHT22;3087;48.392;10.836;2023-04-01T01:53:06;8.90;99.90
6114;DHT22;3087;48.392;10.836;2023-04-01T01:55:35;8.70;99.90
6114;DHT22;3087;48.392;10.836;2023-04-01T01:58:06;8.70;99.90
6114;DHT22;3087;48.392;10.836;2023-04-01T02:00:34;8.70;99.90
6114;DHT22;3087;48.392;10.836;2023-04-01T02:03:00;8.60;99.90
6114;DHT22;3087;48.392;10.836;2023-04-01T02:05:27;9.30;99.90
6114;DHT22;3087;48.392;10.836;2023-04-01T02:08:05;8.60;99.90
6114;DHT22;3087;48.392;10.836;2023-04-01T02:10:35;8.60;99.90
6114;DHT22;3087;48.392;10.836;2023-04-01T02:13:07;8.50;99.90
6114;DHT22;3087;48.392;10.836;2023-04-01T02:15:41;8.90;99.90
6114;DHT22;3087;48.392;10.836;2023-04-01T02:18:08;8.70;99.90
6114;DHT22;3087;48.392;10.836;2023-04-01T02:20:35;8.50;99.90
6114;DHT22;3087;48.392;10.836;2023-04-01T02:23:03;8.70;99.90
6114;DHT22;3087;48.392;10.836;2023-04-01T02:25:34;9.30;99.90
6114;DHT22;3087;48.392;10.836;2023-04-01T02:28:01;10.40;99.90
6114;DHT22;3087;48.392;10.836;2023-04-01T02:30:29;8.50;99.90
6114;DHT22;3087;48.392;10.836;2023-04-01T02:32:57;8.50;99.90
6114;DHT22;3087;48.392;10.836;2023-04-01T02:35:25;8.50;99.90
6114;DHT22;3087;48.392;10.836;2023-04-01T02:37:52;8.90;99.90
6114;DHT22;3087;48.392;10.836;2023-04-01T02:40:19;8.40;99.90
6114;DHT22;3087;48.392;10.836;2023-04-01T02:42:45;8.50;99.90
6114;DHT22;3087;48.392;10.836;2023-04-01T02:45:11;9.00;99.90
6114;DHT22;3087;48.392;10.836;2023-04-01T02:47:37;8.40;99.90
6114;DHT22;3087;48.392;10.836;2023-04-01T02:50:04;8.30;99.90
6114;DHT22;3087;48.392;10.836;2023-04-01T02:52:30;8.40;99.90
6114;DHT22;3087;48.392;10.836;2023-04-01T02:54:56;8.30;99.90
6114;DHT22;3087;48.392;10.836;2023-04-01T02:57:22;8.40;99.90
6114;DHT22;3087;48.392;10.836;2023-04-01T02:59:48;8.50;99.90
6114;DHT22;3087;48.392;10.836;2023-04-01T03:02:14;8.40;99.90
6114;DHT22;3087;48.392;10.836;2023-04-01T03:04:40;8.30;99.90
6114;DHT22;3087;48.392;10.836;2023-04-01T03:07:06;8.30;99.90
6114;DHT22;3087;48.392;10.836;2023-04-01T03:09:32;8.30;99.90
6114;DHT22;3087;48.392;10.836;2023-04-01T03:11:57;8.30;99.90
6114;DHT22;3087;48.392;10.836;2023-04-01T03:14:23;8.20;99.90
6114;DHT22;3087;48.392;10.836;2023-04-01T03:16:48;8.10;99.90
6114;DHT22;3087;48.392;10.836;2023-04-01T03:19:14;8.20;99.90
6114;DHT22;3087;48.392;10.836;2023-04-01T03:21:40;8.30;99.90
6114;DHT22;3087;48.392;10.836;2023-04-01T03:24:06;8.30;99.90
6114;DHT22;3087;48.392;10.836;2023-04-01T03:26:31;8.20;99.90
6114;DHT22;3087;48.392;10.836;2023-04-01T03:28:57;8.20;99.90
6114;DHT22;3087;48.392;10.836;2023-04-01T03:31:23;8.20;99.90
6114;DHT22;3087;48.392;10.836;2023-04-01T03:33:48;8.90;99.90
6114;DHT22;3087;48.392;10.836;2023-04-01T03:36:14;8.20;99.90
6114;DHT22;3087;48.392;10.836;2023-04-01T03:38:42;8.30;99.90
6114;DHT22;3087;48.392;10.836;2023-04-01T03:41:11;8.20;99.90
6114;DHT22;3087;48.392;10.836;2023-04-01T03:43:37;8.20;99.90
6114;DHT22;3087;48.392;10.836;2023-04-01T03:46:03;8.30;99.90
6114;DHT22;3087;48.392;10.836;2023-04-01T03:48:29;8.20;99.90
6114;DHT22;3087;48.392;10.836;2023-04-01T03:50:54;8.70;99.90
6114;DHT22;3087;48.392;10.836;2023-04-01T03:53:20;9.50;99.90
6114;DHT22;3087;48.392;10.836;2023-04-01T03:55:46;8.20;99.90
6114;DHT22;3087;48.392;10.836;2023-04-01T03:58:12;8.20;99.90
6114;DHT22;3087;48.392;10.836;2023-04-01T04:00:37;8.70;99.90
6114;DHT22;3087;48.392;10.836;2023-04-01T04:03:03;8.20;99.90
6114;DHT22;3087;48.392;10.836;2023-04-01T04:05:28;8.20;99.90
6114;DHT22;3087;48.392;10.836;2023-04-01T04:07:54;8.20;99.90
6114;DHT22;3087;48.392;10.836;2023-04-01T04:10:20;8.20;99.90
6114;DHT22;3087;48.392;10.836;2023-04-01T04:12:49;8.50;99.90
6114;DHT22;3087;48.392;10.836;2023-04-01T04:15:15;8.40;99.90
6114;DHT22;3087;48.392;10.836;2023-04-01T04:17:40;8.30;99.90
6114;DHT22;3087;48.392;10.836;2023-04-01T04:20:07;8.30;99.90
6114;DHT22;3087;48.392;10.836;2023-04-01T04:22:33;8.40;99.90
6114;DHT22;3087;48.392;10.836;2023-04-01T04:24:59;8.40;99.90
6114;DHT22;3087;48.392;10.836;2023-04-01T04:27:25;8.20;99.90
6114;DHT22;3087;48.392;10.836;2023-04-01T04:29:50;8.10;99.90
6114;DHT22;3087;48.392;10.836;2023-04-01T04:32:16;8.10;99.90
6114;DHT22;3087;48.392;10.836;2023-04-01T04:34:42;8.10;99.90
6114;DHT22;3087;48.392;10.836;2023-04-01T04:37:07;8.20;99.90
6114;DHT22;3087;48.392;10.836;2023-04-01T04:39:33;8.00;99.90
6114;DHT22;3087;48.392;10.836;2023-04-01T04:41:58;7.90;99.90
6114;DHT22;3087;48.392;10.836;2023-04-01T04:44:24;8.00;99.90
6114;DHT22;3087;48.392;10.836;2023-04-01T04:46:50;6.30;99.90
6114;DHT22;3087;48.392;10.836;2023-04-01T04:49:16;7.90;99.90
6114;DHT22;3087;48.392;10.836;2023-04-01T04:51:41;8.20;99.90
6114;DHT22;3087;48.392;10.836;2023-04-01T04:54:07;7.90;99.90
6114;DHT22;3087;48.392;10.836;2023-04-01T04:56:33;7.90;99.90
6114;DHT22;3087;48.392;10.836;2023-04-01T04:58:59;9.50;99.90
6114;DHT22;3087;48.392;10.836;2023-04-01T05:01:25;7.90;99.90
6114;DHT22;3087;48.392;10.836;2023-04-01T05:03:50;8.00;99.90
6114;DHT22;3087;48.392;10.836;2023-04-01T05:06:17;8.10;99.90
6114;DHT22;3087;48.392;10.836;2023-04-01T05:08:44;8.10;99.90
6114;DHT22;3087;48.392;10.836;2023-04-01T05:11:16;8.20;99.90
6114;DHT22;3087;48.392;10.836;2023-04-01T05:13:42;8.40;99.90
6114;DHT22;3087;48.392;10.836;2023-04-01T05:16:10;9.30;99.90
6114;DHT22;3087;48.392;10.836;2023-04-01T05:18:35;8.40;99.90
6114;DHT22;3087;48.392;10.836;2023-04-01T05:21:01;10.00;99.90
6114;DHT22;3087;48.392;10.836;2023-04-01T05:23:27;8.40;99.90
6114;DHT22;3087;48.392;10.836;2023-04-01T05:25:52;8.50;99.90
6114;DHT22;3087;48.392;10.836;2023-04-01T05:28:19;8.50;99.90
6114;DHT22;3087;48.392;10.836;2023-04-01T05:30:45;8.50;99.90
6114;DHT22;3087;48.392;10.836;2023-04-01T05:33:11;9.70;99.90
6114;DHT22;3087;48.392;10.836;2023-04-01T05:35:38;8.50;99.90
6114;DHT22;3087;48.392;10.836;2023-04-01T05:38:04;9.70;99.90
6114;DHT22;3087;48.392;10.836;2023-04-01T05:40:30;8.50;99.90
6114;DHT22;3087;48.392;10.836;2023-04-01T05:42:55;8.60;99.90
6114;DHT22;3087;48.392;10.836;2023-04-01T05:45:21;8.50;99.90
6114;DHT22;3087;48.392;10.836;2023-04-01T05:47:47;8.40;99.90
6114;DHT22;3087;48.392;10.836;2023-04-01T05:50:13;8.30;99.90
6114;DHT22;3087;48.392;10.836;2023-04-01T05:52:38;8.40;99.90
6114;DHT22;3087;48.392;10.836;2023-04-01T05:55:05;8.50;99.90
6114;DHT22;3087;48.392;10.836;2023-04-01T05:57:31;8.50;99.90
6114;DHT22;3087;48.392;10.836;2023-04-01T05:59:56;8.50;99.90
6114;DHT22;3087;48.392;10.836;2023-04-01T06:02:23;7.00;99.90
6114;DHT22;3087;48.392;10.836;2023-04-01T06:04:49;8.40;99.90
6114;DHT22;3087;48.392;10.836;2023-04-01T06:07:16;8.30;99.90
6114;DHT22;3087;48.392;10.836;2023-04-01T06:09:43;9.50;99.90
6114;DHT22;3087;48.392;10.836;2023-04-01T06:20:34;8.70;99.90
6114;DHT22;3087;48.392;10.836;2023-04-01T06:23:28;8.70;99.90
6114;DHT22;3087;48.392;10.836;2023-04-01T06:31:31;8.80;99.90
6114;DHT22;3087;48.392;10.836;2023-04-01T06:34:37;8.90;99.90
6114;DHT22;3087;48.392;10.836;2023-04-01T06:55:47;9.20;99.90
6114;DHT22;3087;48.392;10.836;2023-04-01T06:58:56;9.10;99.90
6114;DHT22;3087;48.392;10.836;2023-04-01T07:01:27;9.70;99.90
6114;DHT22;3087;48.392;10.836;2023-04-01T07:04:15;9.30;99.90
6114;DHT22;3087;48.392;10.836;2023-04-01T07:09:55;9.50;99.90
6114;DHT22;3087;48.392;10.836;2023-04-01T07:15:24;9.70;99.90
6114;DHT22;3087;48.392;10.836;2023-04-01T07:17:58;9.90;99.90
6114;DHT22;3087;48.392;10.836;2023-04-01T07:20:30;9.60;99.90
6114;DHT22;3087;48.392;10.836;2023-04-01T07:22:59;9.60;99.90
6114;DHT22;3087;48.392;10.836;2023-04-01T07:25:30;9.70;99.90
6114;DHT22;3087;48.392;10.836;2023-04-01T07:28:01;9.70;99.90
6114;DHT22;3087;48.392;10.836;2023-04-01T07:30:30;9.70;99.90
6114;DHT22;3087;48.392;10.836;2023-04-01T07:33:16;9.70;99.90
6114;DHT22;3087;48.392;10.836;2023-04-01T07:41:48;9.80;99.90
6114;DHT22;3087;48.392;10.836;2023-04-01T07:45:27;9.80;99.90
6114;DHT22;3087;48.392;10.836;2023-04-01T07:50:25;9.70;99.90
6114;DHT22;3087;48.392;10.836;2023-04-01T08:10:19;9.90;99.90
6114;DHT22;3087;48.392;10.836;2023-04-01T08:16:41;10.30;99.90
6114;DHT22;3087;48.392;10.836;2023-04-01T08:18:59;10.00;99.90
6114;DHT22;3087;48.392;10.836;2023-04-01T08:21:41;10.00;99.90
6114;DHT22;3087;48.392;10.836;2023-04-01T08:24:35;10.10;99.90
6114;DHT22;3087;48.392;10.836;2023-04-01T08:27:09;10.30;99.90
6114;DHT22;3087;48.392;10.836;2023-04-01T08:29:59;11.50;99.90
6114;DHT22;3087;48.392;10.836;2023-04-01T08:32:39;10.30;99.90
6114;DHT22;3087;48.392;10.836;2023-04-01T08:37:51;10.30;99.90
6114;DHT22;3087;48.392;10.836;2023-04-01T08:43:24;10.50;99.90
6114;DHT22;3087;48.392;10.836;2023-04-01T09:11:02;11.20;99.90
6114;DHT22;3087;48.392;10.836;2023-04-01T09:25:21;11.50;99.90
6114;DHT22;3087;48.392;10.836;2023-04-01T09:30:55;11.50;99.90
6114;DHT22;3087;48.392;10.836;2023-04-01T09:36:07;11.60;99.90
6114;DHT22;3087;48.392;10.836;2023-04-01T09:41:30;11.70;99.90
6114;DHT22;3087;48.392;10.836;2023-04-01T09:44:03;11.50;99.90
6114;DHT22;3087;48.392;10.836;2023-04-01T10:03:21;11.80;99.90
6114;DHT22;3087;48.392;10.836;2023-04-01T10:13:55;11.50;99.90
6114;DHT22;3087;48.392;10.836;2023-04-01T10:16:47;11.10;99.90
6114;DHT22;3087;48.392;10.836;2023-04-01T10:19:38;10.90;99.90
6114;DHT22;3087;48.392;10.836;2023-04-01T10:22:35;10.70;99.90
6114;DHT22;3087;48.392;10.836;2023-04-01T10:48:10;9.90;99.90
6114;DHT22;3087;48.392;10.836;2023-04-01T10:51:35;9.70;99.90
6114;DHT22;3087;48.392;10.836;2023-04-01T11:22:32;8.60;99.90
6114;DHT22;3087;48.392;10.836;2023-04-01T11:33:36;8.30;99.90
6114;DHT22;3087;48.392;10.836;2023-04-01T11:39:17;8.40;99.90
6114;DHT22;3087;48.392;10.836;2023-04-01T11:44:32;8.60;99.90
6114;DHT22;3087;48.392;10.836;2023-04-01T11:50:03;8.80;99.90
6114;DHT22;3087;48.392;10.836;2023-04-01T12:06:14;9.30;99.90
6114;DHT22;3087;48.392;10.836;2023-04-01T12:09:04;9.40;99.90
6114;DHT22;3087;48.392;10.836;2023-04-01T12:11:52;9.40;99.90
6114;DHT22;3087;48.392;10.836;2023-04-01T12:20:21;9.40;99.90
6114;DHT22;3087;48.392;10.836;2023-04-01T12:23:05;9.40;99.90
6114;DHT22;3087;48.392;10.836;2023-04-01T12:28:23;9.40;99.90
6114;DHT22;3087;48.392;10.836;2023-04-01T12:34:05;9.40;99.90
6114;DHT22;3087;48.392;10.836;2023-04-01T12:39:22;7.80;99.90
6114;DHT22;3087;48.392;10.836;2023-04-01T12:48:15;9.60;99.90
6114;DHT22;3087;48.392;10.836;2023-04-01T12:55:51;9.90;99.90
6114;DHT22;3087;48.392;10.836;2023-04-01T13:01:30;9.80;99.90
6114;DHT22;3087;48.392;10.836;2023-04-01T13:10:32;9.90;99.90
6114;DHT22;3087;48.392;10.836;2023-04-01T13:13:07;9.90;99.90
6114;DHT22;3087;48.392;10.836;2023-04-01T13:21:19;9.80;99.90
6114;DHT22;3087;48.392;10.836;2023-04-01T13:23:50;9.70;99.90
6114;DHT22;3087;48.392;10.836;2023-04-01T13:26:27;9.80;99.90
6114;DHT22;3087;48.392;10.836;2023-04-01T13:32:23;9.80;99.90
6114;DHT22;3087;48.392;10.836;2023-04-01T13:40:39;10.20;99.90
6114;DHT22;3087;48.392;10.836;2023-04-01T13:56:42;10.80;99.90
6114;DHT22;3087;48.392;10.836;2023-04-01T14:02:26;10.70;99.90
6114;DHT22;3087;48.392;10.836;2023-04-01T14:08:17;11.10;99.90
6114;DHT22;3087;48.392;10.836;2023-04-01T14:11:13;11.30;99.90
6114;DHT22;3087;48.392;10.836;2023-04-01T14:19:24;11.10;99.90
6114;DHT22;3087;48.392;10.836;2023-04-01T14:27:41;11.20;99.90
6114;DHT22;3087;48.392;10.836;2023-04-01T14:30:29;11.30;99.90
6114;DHT22;3087;48.392;10.836;2023-04-01T14:41:20;10.90;99.90
6114;DHT22;3087;48.392;10.836;2023-04-01T14:44:54;11.00;99.90
6114;DHT22;3087;48.392;10.836;2023-04-01T14:50:28;10.70;99.90
6114;DHT22;3087;48.392;10.836;2023-04-01T14:58:16;10.80;99.90
6114;DHT22;3087;48.392;10.836;2023-04-01T15:00:59;11.10;99.90
6114;DHT22;3087;48.392;10.836;2023-04-01T15:14:41;11.10;99.90
6114;DHT22;3087;48.392;10.836;2023-04-01T15:23:04;11.20;99.90
6114;DHT22;3087;48.392;10.836;2023-04-01T15:25:51;11.20;99.90
6114;DHT22;3087;48.392;10.836;2023-04-01T15:43:18;11.20;99.90
6114;DHT22;3087;48.392;10.836;2023-04-01T15:49:35;10.90;99.90
6114;DHT22;3087;48.392;10.836;2023-04-01T15:52:14;10.90;99.90
6114;DHT22;3087;48.392;10.836;2023-04-01T16:11:43;11.10;99.90
6114;DHT22;3087;48.392;10.836;2023-04-01T16:14:28;11.10;99.90
6114;DHT22;3087;48.392;10.836;2023-04-01T16:22:41;11.00;99.90
6114;DHT22;3087;48.392;10.836;2023-04-01T16:36:41;10.90;99.90
6114;DHT22;3087;48.392;10.836;2023-04-01T16:39:22;10.90;99.90
6114;DHT22;3087;48.392;10.836;2023-04-01T16:44:25;11.20;99.90
6114;DHT22;3087;48.392;10.836;2023-04-01T16:46:53;11.20;99.90
6114;DHT22;3087;48.392;10.836;2023-04-01T16:49:42;10.90;99.90
6114;DHT22;3087;48.392;10.836;2023-04-01T16:52:13;10.90;99.90
6114;DHT22;3087;48.392;10.836;2023-04-01T16:57:28;10.70;99.90
6114;DHT22;3087;48.392;10.836;2023-04-01T17:00:09;10.70;99.90
6114;DHT22;3087;48.392;10.836;2023-04-01T17:03:30;10.60;99.90
6114;DHT22;3087;48.392;10.836;2023-04-01T17:06:01;10.90;99.90
6114;DHT22;3087;48.392;10.836;2023-04-01T17:11:13;10.60;99.90
6114;DHT22;3087;48.392;10.836;2023-04-01T17:14:03;10.60;99.90
6114;DHT22;3087;48.392;10.836;2023-04-01T17:22:21;10.40;99.90
6114;DHT22;3087;48.392;10.836;2023-04-01T17:27:44;10.60;99.90
6114;DHT22;3087;48.392;10.836;2023-04-01T17:36:03;10.70;99.90
6114;DHT22;3087;48.392;10.836;2023-04-01T17:47:52;10.50;99.90
6114;DHT22;3087;48.392;10.836;2023-04-01T17:56:43;10.40;99.90
6114;DHT22;3087;48.392;10.836;2023-04-01T17:59:26;10.30;99.90
6114;DHT22;3087;48.392;10.836;2023-04-01T18:05:22;10.10;99.90
6114;DHT22;3087;48.392;10.836;2023-04-01T18:10:41;10.20;99.90
6114;DHT22;3087;48.392;10.836;2023-04-01T18:19:02;10.20;99.90
6114;DHT22;3087;48.392;10.836;2023-04-01T18:24:41;10.00;99.90
6114;DHT22;3087;48.392;10.836;2023-04-01T18:29:49;10.00;99.90
6114;DHT22;3087;48.392;10.836;2023-04-01T18:35:34;9.90;99.90
6114;DHT22;3087;48.392;10.836;2023-04-01T18:38:14;10.00;99.90
6114;DHT22;3087;48.392;10.836;2023-04-01T18:40:57;10.10;99.90
6114;DHT22;3087;48.392;10.836;2023-04-01T18:43:40;10.10;99.90
6114;DHT22;3087;48.392;10.836;2023-04-01T18:46:19;10.20;99.90
6114;DHT22;3087;48.392;10.836;2023-04-01T18:51:43;10.00;99.90
6114;DHT22;3087;48.392;10.836;2023-04-01T18:54:17;10.00;99.90
6114;DHT22;3087;48.392;10.836;2023-04-01T18:56:47;10.50;99.90
6114;DHT22;3087;48.392;10.836;2023-04-01T19:02:19;10.00;99.90
6114;DHT22;3087;48.392;10.836;2023-04-01T19:07:52;9.80;99.90
6114;DHT22;3087;48.392;10.836;2023-04-01T19:16:16;9.90;99.90
6114;DHT22;3087;48.392;10.836;2023-04-01T19:21:33;10.70;99.90
6114;DHT22;3087;48.392;10.836;2023-04-01T19:26:59;10.00;99.90
6114;DHT22;3087;48.392;10.836;2023-04-01T19:29:36;9.80;99.90
6114;DHT22;3087;48.392;10.836;2023-04-01T19:32:14;9.90;99.90
6114;DHT22;3087;48.392;10.836;2023-04-01T19:37:46;9.80;99.90
6114;DHT22;3087;48.392;10.836;2023-04-01T19:43:27;9.90;99.90
6114;DHT22;3087;48.392;10.836;2023-04-01T19:49:05;9.80;99.90
6114;DHT22;3087;48.392;10.836;2023-04-01T19:51:49;9.80;99.90
6114;DHT22;3087;48.392;10.836;2023-04-01T19:57:12;9.70;99.90
6114;DHT22;3087;48.392;10.836;2023-04-01T19:59:54;9.70;99.90
6114;DHT22;3087;48.392;10.836;2023-04-01T20:02:43;9.60;99.90
6114;DHT22;3087;48.392;10.836;2023-04-01T20:11:11;11.60;99.90
6114;DHT22;3087;48.392;10.836;2023-04-01T20:14:09;9.60;99.90
6114;DHT22;3087;48.392;10.836;2023-04-01T20:16:58;9.60;99.90
6114;DHT22;3087;48.392;10.836;2023-04-01T20:19:29;9.70;99.90
6114;DHT22;3087;48.392;10.836;2023-04-01T20:22:01;9.70;99.90
6114;DHT22;3087;48.392;10.836;2023-04-01T20:24:41;9.80;99.90
6114;DHT22;3087;48.392;10.836;2023-04-01T20:27:21;9.80;99.90
6114;DHT22;3087;48.392;10.836;2023-04-01T20:44:10;9.90;99.90
6114;DHT22;3087;48.392;10.836;2023-04-01T20:46:48;9.80;99.90
6114;DHT22;3087;48.392;10.836;2023-04-01T20:57:55;9.60;99.90
6114;DHT22;3087;48.392;10.836;2023-04-01T21:00:45;9.50;99.90
6114;DHT22;3087;48.392;10.836;2023-04-01T21:06:32;9.60;99.90
6114;DHT22;3087;48.392;10.836;2023-04-01T21:12:25;9.50;99.90
6114;DHT22;3087;48.392;10.836;2023-04-01T21:17:45;9.60;99.90
6114;DHT22;3087;48.392;10.836;2023-04-01T21:20:39;9.70;99.90
6114;DHT22;3087;48.392;10.836;2023-04-01T21:26:04;9.90;99.90
6114;DHT22;3087;48.392;10.836;2023-04-01T21:28:46;10.00;99.90
6114;DHT22;3087;48.392;10.836;2023-04-01T21:31:22;10.00;99.90
6114;DHT22;3087;48.392;10.836;2023-04-01T21:57:13;9.40;99.90
6114;DHT22;3087;48.392;10.836;2023-04-01T22:05:22;9.00;99.90
6114;DHT22;3087;48.392;10.836;2023-04-01T22:08:20;8.90;99.90
6114;DHT22;3087;48.392;10.836;2023-04-01T22:23:02;8.70;99.90
6114;DHT22;3087;48.392;10.836;2023-04-01T22:26:17;8.80;99.90
6114;DHT22;3087;48.392;10.836;2023-04-01T22:28:48;8.80;99.90
6114;DHT22;3087;48.392;10.836;2023-04-01T22:31:25;8.70;99.90
6114;DHT22;3087;48.392;10.836;2023-04-01T22:34:11;8.60;99.90
6114;DHT22;3087;48.392;10.836;2023-04-01T22:42:32;8.40;99.90
6114;DHT22;3087;48.392;10.836;2023-04-01T22:48:18;8.30;99.90
6114;DHT22;3087;48.392;10.836;2023-04-01T22:50:54;8.30;99.90
6114;DHT22;3087;48.392;10.836;2023-04-01T22:56:01;8.30;99.90
6114;DHT22;3087;48.392;10.836;2023-04-01T22:58:40;8.40;99.90
6114;DHT22;3087;48.392;10.836;2023-04-01T23:01:13;8.30;99.90
6114;DHT22;3087;48.392;10.836;2023-04-01T23:03:41;8.40;99.90
6114;DHT22;3087;48.392;10.836;2023-04-01T23:06:23;8.40;99.90
6114;DHT22;3087;48.392;10.836;2023-04-01T23:09:28;8.40;99.90
6114;DHT22;3087;48.392;10.836;2023-04-01T23:12:07;8.50;99.90
6114;DHT22;3087;48.392;10.836;2023-04-01T23:20:31;8.40;99.90
6114;DHT22;3087;48.392;10.836;2023-04-01T23:23:39;8.50;99.90
6114;DHT22;3087;48.392;10.836;2023-04-01T23:28:57;8.40;99.90
6114;DHT22;3087;48.392;10.836;2023-04-01T23:31:43;8.50;99.90
6114;DHT22;3087;48.392;10.836;2023-04-01T23:36:44;8.50;99.90
6114;DHT22;3087;48.392;10.836;2023-04-01T23:39:21;8.50;99.90
6114;DHT22;3087;48.392;10.836;2023-04-01T23:41:48;8.40;99.90
6114;DHT22;3087;48.392;10.836;2023-04-01T23:44:15;8.40;99.90
6114;DHT22;3087;48.392;10.836;2023-04-01T23:46:42;8.40;99.90
6114;DHT22;3087;48.392;10.836;2023-04-01T23:49:21;8.40;99.90
6114;DHT22;3087;48.392;10.836;2023-04-01T23:52:13;8.40;99.90
6114;DHT22;3087;48.392;10.836;2023-04-01T23:54:53;8.40;99.90
6114;DHT22;3087;48.392;10.836;2023-04-01T23:57:28;8.50;99.90
